sensor_id;sensor_type;location;lat;lon;timestamp;P1;durP1;ratioP1;P2;durP2;ratioP2
1224;SDS011;602;48.000;7.840;2024-03-23T00:55:04;1.53;;;0.93;;
1224;SDS011;602;48.000;7.840;2024-03-23T00:57:31;1.87;;;1.30;;
1224;SDS011;602;48.000;7.840;2024-03-23T00:59:57;2.00;;;1.77;;
1224;SDS011;602;48.000;7.840;2024-03-23T01:02:24;1.47;;;1.37;;
1224;SDS011;602;48.000;7.840;2024-03-23T01:04:50;1.70;;;1.60;;
1224;SDS011;602;48.000;7.840;2024-03-23T01:07:17;2.10;;;1.63;;
1224;SDS011;602;48.000;7.840;2024-03-23T01:09:42;1.53;;;1.43;;
1224;SDS011;602;48.000;7.840;2024-03-23T01:12:10;1.23;;;1.13;;
1224;SDS011;602;48.000;7.840;2024-03-23T01:14:36;4.60;;;1.40;;
1224;SDS011;602;48.000;7.840;2024-03-23T01:17:03;1.57;;;1.43;;
1224;SDS011;602;48.000;7.840;2024-03-23T01:19:29;1.43;;;1.23;;
1224;SDS011;602;48.000;7.840;2024-03-23T01:21:56;1.90;;;1.80;;
1224;SDS011;602;48.000;7.840;2024-03-23T01:24:22;4.10;;;1.67;;
1224;SDS011;602;48.000;7.840;2024-03-23T01:26:48;1.70;;;1.47;;
1224;SDS011;602;48.000;7.840;2024-03-23T01:29:16;2.43;;;1.63;;
1224;SDS011;602;48.000;7.840;2024-03-23T01:31:42;1.60;;;1.43;;
1224;SDS011;602;48.000;7.840;2024-03-23T01:34:08;1.40;;;1.30;;
1224;SDS011;602;48.000;7.840;2024-03-23T01:36:35;2.63;;;1.60;;
1224;SDS011;602;48.000;7.840;2024-03-23T01:39:01;2.27;;;2.00;;
1224;SDS011;602;48.000;7.840;2024-03-23T01:41:28;1.33;;;1.23;;
1224;SDS011;602;48.000;7.840;2024-03-23T01:43:53;2.13;;;1.73;;
1224;SDS011;602;48.000;7.840;2024-03-23T01:46:23;1.73;;;1.53;;
1224;SDS011;602;48.000;7.840;2024-03-23T01:48:49;1.83;;;1.67;;
1224;SDS011;602;48.000;7.840;2024-03-23T01:51:16;3.00;;;2.03;;
1224;SDS011;602;48.000;7.840;2024-03-23T01:53:42;2.03;;;1.83;;
1224;SDS011;602;48.000;7.840;2024-03-23T01:56:09;1.20;;;1.10;;
1224;SDS011;602;48.000;7.840;2024-03-23T01:58:35;2.33;;;1.30;;
1224;SDS011;602;48.000;7.840;2024-03-23T02:01:01;1.40;;;1.30;;
1224;SDS011;602;48.000;7.840;2024-03-23T02:03:29;2.30;;;2.07;;
1224;SDS011;602;48.000;7.840;2024-03-23T02:05:56;2.00;;;1.73;;
1224;SDS011;602;48.000;7.840;2024-03-23T02:08:23;4.80;;;2.23;;
1224;SDS011;602;48.000;7.840;2024-03-23T02:10:50;1.53;;;1.43;;
1224;SDS011;602;48.000;7.840;2024-03-23T02:13:17;1.60;;;1.50;;
1224;SDS011;602;48.000;7.840;2024-03-23T02:15:44;1.57;;;1.30;;
1224;SDS011;602;48.000;7.840;2024-03-23T02:18:10;3.80;;;3.03;;
1224;SDS011;602;48.000;7.840;2024-03-23T02:20:39;1.73;;;1.63;;
1224;SDS011;602;48.000;7.840;2024-03-23T02:23:10;1.70;;;1.60;;
1224;SDS011;602;48.000;7.840;2024-03-23T02:25:39;3.37;;;1.97;;
1224;SDS011;602;48.000;7.840;2024-03-23T02:28:05;2.10;;;2.00;;
1224;SDS011;602;48.000;7.840;2024-03-23T02:30:32;3.03;;;1.70;;
1224;SDS011;602;48.000;7.840;2024-03-23T02:32:58;5.73;;;1.80;;
1224;SDS011;602;48.000;7.840;2024-03-23T02:35:24;2.47;;;1.73;;
1224;SDS011;602;48.000;7.840;2024-03-23T02:37:50;2.17;;;1.50;;
1224;SDS011;602;48.000;7.840;2024-03-23T02:40:19;3.40;;;1.63;;
1224;SDS011;602;48.000;7.840;2024-03-23T02:42:45;1.80;;;1.70;;
1224;SDS011;602;48.000;7.840;2024-03-23T02:45:12;2.40;;;2.10;;
1224;SDS011;602;48.000;7.840;2024-03-23T02:47:38;2.10;;;1.77;;
1224;SDS011;602;48.000;7.840;2024-03-23T02:50:05;1.20;;;0.97;;
1224;SDS011;602;48.000;7.840;2024-03-23T02:52:31;3.43;;;2.33;;
1224;SDS011;602;48.000;7.840;2024-03-23T02:54:58;1.90;;;1.60;;
1224;SDS011;602;48.000;7.840;2024-03-23T02:57:25;2.03;;;1.50;;
1224;SDS011;602;48.000;7.840;2024-03-23T02:59:52;1.60;;;1.50;;
1224;SDS011;602;48.000;7.840;2024-03-23T03:02:18;3.33;;;2.23;;
1224;SDS011;602;48.000;7.840;2024-03-23T03:04:46;2.43;;;2.23;;
1224;SDS011;602;48.000;7.840;2024-03-23T03:07:12;2.23;;;1.73;;
1224;SDS011;602;48.000;7.840;2024-03-23T03:09:38;2.40;;;2.20;;
1224;SDS011;602;48.000;7.840;2024-03-23T03:12:04;1.70;;;1.60;;
1224;SDS011;602;48.000;7.840;2024-03-23T03:14:33;1.70;;;1.60;;
1224;SDS011;602;48.000;7.840;2024-03-23T03:16:59;1.50;;;1.40;;
1224;SDS011;602;48.000;7.840;2024-03-23T03:19:26;1.53;;;1.30;;
1224;SDS011;602;48.000;7.840;2024-03-23T03:21:52;1.90;;;1.80;;
1224;SDS011;602;48.000;7.840;2024-03-23T03:24:19;2.80;;;2.03;;
1224;SDS011;602;48.000;7.840;2024-03-23T03:26:45;3.10;;;1.97;;
1224;SDS011;602;48.000;7.840;2024-03-23T03:29:12;2.30;;;2.10;;
1224;SDS011;602;48.000;7.840;2024-03-23T03:31:39;1.87;;;1.70;;
1224;SDS011;602;48.000;7.840;2024-03-23T03:34:06;2.23;;;1.70;;
1224;SDS011;602;48.000;7.840;2024-03-23T03:36:32;2.40;;;2.20;;
1224;SDS011;602;48.000;7.840;2024-03-23T03:38:58;1.93;;;1.73;;
1224;SDS011;602;48.000;7.840;2024-03-23T03:41:24;1.43;;;1.33;;
1224;SDS011;602;48.000;7.840;2024-03-23T03:43:51;2.83;;;2.33;;
1224;SDS011;602;48.000;7.840;2024-03-23T03:46:17;3.83;;;1.90;;
1224;SDS011;602;48.000;7.840;2024-03-23T03:48:45;2.50;;;1.90;;
1224;SDS011;602;48.000;7.840;2024-03-23T03:51:13;3.00;;;1.90;;
1224;SDS011;602;48.000;7.840;2024-03-23T03:53:40;1.77;;;1.67;;
1224;SDS011;602;48.000;7.840;2024-03-23T03:56:06;4.10;;;1.97;;
1224;SDS011;602;48.000;7.840;2024-03-23T03:58:33;5.43;;;2.10;;
1224;SDS011;602;48.000;7.840;2024-03-23T04:00:58;3.07;;;1.37;;
1224;SDS011;602;48.000;7.840;2024-03-23T04:03:25;1.80;;;1.70;;
1224;SDS011;602;48.000;7.840;2024-03-23T04:05:53;2.90;;;2.07;;
1224;SDS011;602;48.000;7.840;2024-03-23T04:08:20;3.30;;;2.07;;
1224;SDS011;602;48.000;7.840;2024-03-23T04:10:46;2.50;;;2.13;;
1224;SDS011;602;48.000;7.840;2024-03-23T04:13:14;2.90;;;1.90;;
1224;SDS011;602;48.000;7.840;2024-03-23T04:15:40;2.20;;;2.00;;
1224;SDS011;602;48.000;7.840;2024-03-23T04:18:06;8.50;;;2.67;;
1224;SDS011;602;48.000;7.840;2024-03-23T04:20:33;4.40;;;2.50;;
1224;SDS011;602;48.000;7.840;2024-03-23T04:23:01;2.97;;;2.10;;
1224;SDS011;602;48.000;7.840;2024-03-23T04:25:28;3.00;;;2.00;;
1224;SDS011;602;48.000;7.840;2024-03-23T04:27:55;2.47;;;2.27;;
1224;SDS011;602;48.000;7.840;2024-03-23T04:30:20;3.07;;;2.00;;
1224;SDS011;602;48.000;7.840;2024-03-23T04:32:50;2.40;;;2.20;;
1224;SDS011;602;48.000;7.840;2024-03-23T04:35:16;5.73;;;2.83;;
1224;SDS011;602;48.000;7.840;2024-03-23T04:37:42;2.70;;;2.20;;
1224;SDS011;602;48.000;7.840;2024-03-23T04:40:11;2.90;;;2.70;;
1224;SDS011;602;48.000;7.840;2024-03-23T04:42:38;2.73;;;2.17;;
1224;SDS011;602;48.000;7.840;2024-03-23T04:45:05;5.60;;;2.60;;
1224;SDS011;602;48.000;7.840;2024-03-23T04:47:31;2.20;;;1.80;;
1224;SDS011;602;48.000;7.840;2024-03-23T04:50:00;2.37;;;2.10;;
1224;SDS011;602;48.000;7.840;2024-03-23T04:52:28;3.50;;;2.03;;
1224;SDS011;602;48.000;7.840;2024-03-23T04:54:54;10.53;;;2.60;;
1224;SDS011;602;48.000;7.840;2024-03-23T04:57:23;2.70;;;2.50;;
1224;SDS011;602;48.000;7.840;2024-03-23T04:59:49;2.30;;;2.10;;
1224;SDS011;602;48.000;7.840;2024-03-23T05:02:15;2.83;;;2.33;;
1224;SDS011;602;48.000;7.840;2024-03-23T05:04:41;2.93;;;2.60;;
1224;SDS011;602;48.000;7.840;2024-03-23T05:07:08;8.40;;;3.20;;
1224;SDS011;602;48.000;7.840;2024-03-23T05:09:34;3.60;;;3.30;;
1224;SDS011;602;48.000;7.840;2024-03-23T05:12:01;4.50;;;2.97;;
1224;SDS011;602;48.000;7.840;2024-03-23T05:14:29;2.30;;;2.10;;
1224;SDS011;602;48.000;7.840;2024-03-23T05:16:55;3.53;;;2.70;;
1224;SDS011;602;48.000;7.840;2024-03-23T05:19:21;3.87;;;2.50;;
1224;SDS011;602;48.000;7.840;2024-03-23T05:21:48;2.37;;;2.17;;
1224;SDS011;602;48.000;7.840;2024-03-23T05:24:14;2.80;;;2.60;;
1224;SDS011;602;48.000;7.840;2024-03-23T05:26:41;3.00;;;2.80;;
1224;SDS011;602;48.000;7.840;2024-03-23T05:29:07;2.53;;;2.33;;
1224;SDS011;602;48.000;7.840;2024-03-23T05:31:37;4.77;;;3.80;;
1224;SDS011;602;48.000;7.840;2024-03-23T05:34:03;4.60;;;3.53;;
1224;SDS011;602;48.000;7.840;2024-03-23T05:36:30;6.13;;;5.00;;
1224;SDS011;602;48.000;7.840;2024-03-23T05:38:57;7.90;;;5.13;;
1224;SDS011;602;48.000;7.840;2024-03-23T05:41:24;4.33;;;3.63;;
1224;SDS011;602;48.000;7.840;2024-03-23T05:43:50;4.00;;;3.10;;
1224;SDS011;602;48.000;7.840;2024-03-23T05:46:17;4.60;;;4.20;;
1224;SDS011;602;48.000;7.840;2024-03-23T05:48:44;3.93;;;2.87;;
1224;SDS011;602;48.000;7.840;2024-03-23T05:51:11;3.13;;;2.73;;
1224;SDS011;602;48.000;7.840;2024-03-23T05:53:37;4.50;;;3.00;;
1224;SDS011;602;48.000;7.840;2024-03-23T05:56:04;3.93;;;3.07;;
1224;SDS011;602;48.000;7.840;2024-03-23T05:58:31;3.30;;;3.00;;
1224;SDS011;602;48.000;7.840;2024-03-23T06:00:58;5.00;;;3.10;;
1224;SDS011;602;48.000;7.840;2024-03-23T06:03:25;3.63;;;2.67;;
1224;SDS011;602;48.000;7.840;2024-03-23T06:05:54;4.50;;;3.13;;
1224;SDS011;602;48.000;7.840;2024-03-23T06:08:20;6.00;;;2.50;;
1224;SDS011;602;48.000;7.840;2024-03-23T06:10:47;3.10;;;2.80;;
1224;SDS011;602;48.000;7.840;2024-03-23T06:13:13;2.87;;;2.57;;
1224;SDS011;602;48.000;7.840;2024-03-23T06:15:40;3.07;;;1.93;;
1224;SDS011;602;48.000;7.840;2024-03-23T06:18:06;2.13;;;1.90;;
1224;SDS011;602;48.000;7.840;2024-03-23T06:20:33;1.60;;;1.50;;
1224;SDS011;602;48.000;7.840;2024-03-23T06:23:01;1.90;;;1.57;;
1224;SDS011;602;48.000;7.840;2024-03-23T06:25:28;3.10;;;2.20;;
1224;SDS011;602;48.000;7.840;2024-03-23T06:27:54;3.40;;;2.40;;
1224;SDS011;602;48.000;7.840;2024-03-23T06:30:21;2.20;;;1.53;;
1224;SDS011;602;48.000;7.840;2024-03-23T06:32:47;3.50;;;1.30;;
1224;SDS011;602;48.000;7.840;2024-03-23T06:35:14;2.13;;;1.00;;
1224;SDS011;602;48.000;7.840;2024-03-23T06:37:39;1.93;;;1.83;;
1224;SDS011;602;48.000;7.840;2024-03-23T06:40:08;0.80;;;0.70;;
1224;SDS011;602;48.000;7.840;2024-03-23T06:42:35;0.70;;;0.50;;
1224;SDS011;602;48.000;7.840;2024-03-23T06:45:02;0.87;;;0.83;;
1224;SDS011;602;48.000;7.840;2024-03-23T06:47:29;0.60;;;0.60;;
1224;SDS011;602;48.000;7.840;2024-03-23T06:49:56;0.40;;;0.40;;
1224;SDS011;602;48.000;7.840;2024-03-23T06:52:23;0.50;;;0.30;;
1224;SDS011;602;48.000;7.840;2024-03-23T06:54:49;4.67;;;1.30;;
1224;SDS011;602;48.000;7.840;2024-03-23T06:57:17;2.00;;;0.70;;
1224;SDS011;602;48.000;7.840;2024-03-23T06:59:43;1.20;;;0.30;;
1224;SDS011;602;48.000;7.840;2024-03-23T07:02:09;0.30;;;0.30;;
1224;SDS011;602;48.000;7.840;2024-03-23T07:04:36;1.03;;;0.60;;
1224;SDS011;602;48.000;7.840;2024-03-23T07:07:04;0.60;;;0.43;;
1224;SDS011;602;48.000;7.840;2024-03-23T07:09:31;0.50;;;0.50;;
1224;SDS011;602;48.000;7.840;2024-03-23T07:11:57;0.40;;;0.40;;
1224;SDS011;602;48.000;7.840;2024-03-23T07:14:26;0.60;;;0.47;;
1224;SDS011;602;48.000;7.840;2024-03-23T07:16:52;0.53;;;0.43;;
1224;SDS011;602;48.000;7.840;2024-03-23T07:19:19;0.40;;;0.40;;
1224;SDS011;602;48.000;7.840;2024-03-23T07:21:45;0.47;;;0.30;;
1224;SDS011;602;48.000;7.840;2024-03-23T07:24:13;1.43;;;0.70;;
1224;SDS011;602;48.000;7.840;2024-03-23T07:26:38;0.77;;;0.50;;
1224;SDS011;602;48.000;7.840;2024-03-23T07:29:06;0.43;;;0.43;;
1224;SDS011;602;48.000;7.840;2024-03-23T07:31:33;0.53;;;0.53;;
1224;SDS011;602;48.000;7.840;2024-03-23T07:34:00;0.50;;;0.50;;
1224;SDS011;602;48.000;7.840;2024-03-23T07:36:26;0.30;;;0.30;;
1224;SDS011;602;48.000;7.840;2024-03-23T07:38:52;0.33;;;0.33;;
1224;SDS011;602;48.000;7.840;2024-03-23T07:41:19;0.40;;;0.33;;
1224;SDS011;602;48.000;7.840;2024-03-23T07:43:47;0.30;;;0.30;;
1224;SDS011;602;48.000;7.840;2024-03-23T07:46:14;0.33;;;0.33;;
1224;SDS011;602;48.000;7.840;2024-03-23T07:48:43;0.30;;;0.30;;
1224;SDS011;602;48.000;7.840;2024-03-23T07:51:10;0.30;;;0.30;;
1224;SDS011;602;48.000;7.840;2024-03-23T07:53:37;0.40;;;0.40;;
1224;SDS011;602;48.000;7.840;2024-03-23T07:56:05;0.50;;;0.43;;
1224;SDS011;602;48.000;7.840;2024-03-23T07:58:33;0.50;;;0.50;;
1224;SDS011;602;48.000;7.840;2024-03-23T08:01:03;0.63;;;0.47;;
1224;SDS011;602;48.000;7.840;2024-03-23T08:03:32;0.47;;;0.47;;
1224;SDS011;602;48.000;7.840;2024-03-23T08:06:07;2.27;;;0.63;;
1224;SDS011;602;48.000;7.840;2024-03-23T08:08:34;1.60;;;0.93;;
1224;SDS011;602;48.000;7.840;2024-03-23T08:11:00;0.80;;;0.60;;
1224;SDS011;602;48.000;7.840;2024-03-23T08:13:28;7.30;;;1.43;;
1224;SDS011;602;48.000;7.840;2024-03-23T08:15:56;0.60;;;0.60;;
1224;SDS011;602;48.000;7.840;2024-03-23T08:18:23;1.80;;;1.07;;
1224;SDS011;602;48.000;7.840;2024-03-23T08:20:55;1.10;;;0.77;;
1224;SDS011;602;48.000;7.840;2024-03-23T08:23:23;1.97;;;1.13;;
1224;SDS011;602;48.000;7.840;2024-03-23T08:25:49;4.13;;;1.07;;
1224;SDS011;602;48.000;7.840;2024-03-23T08:28:16;8.47;;;1.30;;
1224;SDS011;602;48.000;7.840;2024-03-23T08:30:42;1.10;;;1.00;;
1224;SDS011;602;48.000;7.840;2024-03-23T08:33:09;0.80;;;0.63;;
1224;SDS011;602;48.000;7.840;2024-03-23T08:35:35;1.00;;;0.90;;
1224;SDS011;602;48.000;7.840;2024-03-23T08:38:02;2.40;;;1.10;;
1224;SDS011;602;48.000;7.840;2024-03-23T08:40:30;1.00;;;0.73;;
1224;SDS011;602;48.000;7.840;2024-03-23T08:42:56;4.33;;;1.17;;
1224;SDS011;602;48.000;7.840;2024-03-23T08:45:23;1.63;;;1.13;;
1224;SDS011;602;48.000;7.840;2024-03-23T08:47:50;1.00;;;0.80;;
1224;SDS011;602;48.000;7.840;2024-03-23T08:50:16;2.67;;;1.43;;
1224;SDS011;602;48.000;7.840;2024-03-23T08:52:43;1.63;;;1.00;;
1224;SDS011;602;48.000;7.840;2024-03-23T08:55:09;1.40;;;1.30;;
1224;SDS011;602;48.000;7.840;2024-03-23T08:57:37;1.20;;;0.93;;
1224;SDS011;602;48.000;7.840;2024-03-23T09:00:04;1.77;;;1.03;;
1224;SDS011;602;48.000;7.840;2024-03-23T09:02:33;2.40;;;1.90;;
1224;SDS011;602;48.000;7.840;2024-03-23T09:04:59;2.30;;;1.70;;
1224;SDS011;602;48.000;7.840;2024-03-23T09:07:29;4.00;;;1.80;;
1224;SDS011;602;48.000;7.840;2024-03-23T09:09:55;1.17;;;0.87;;
1224;SDS011;602;48.000;7.840;2024-03-23T09:12:22;2.17;;;1.57;;
1224;SDS011;602;48.000;7.840;2024-03-23T09:14:50;3.93;;;1.30;;
1224;SDS011;602;48.000;7.840;2024-03-23T09:17:18;2.67;;;1.07;;
1224;SDS011;602;48.000;7.840;2024-03-23T09:19:44;1.47;;;1.10;;
1224;SDS011;602;48.000;7.840;2024-03-23T09:22:11;3.30;;;2.13;;
1224;SDS011;602;48.000;7.840;2024-03-23T09:24:38;3.23;;;1.73;;
1224;SDS011;602;48.000;7.840;2024-03-23T09:27:05;3.23;;;1.33;;
1224;SDS011;602;48.000;7.840;2024-03-23T09:29:31;2.13;;;1.63;;
1224;SDS011;602;48.000;7.840;2024-03-23T09:31:59;4.20;;;1.40;;
1224;SDS011;602;48.000;7.840;2024-03-23T09:34:25;1.73;;;1.60;;
1224;SDS011;602;48.000;7.840;2024-03-23T09:36:52;1.20;;;1.10;;
1224;SDS011;602;48.000;7.840;2024-03-23T09:39:18;1.40;;;1.20;;
1224;SDS011;602;48.000;7.840;2024-03-23T09:41:45;3.77;;;1.03;;
1224;SDS011;602;48.000;7.840;2024-03-23T09:44:11;3.57;;;1.20;;
1224;SDS011;602;48.000;7.840;2024-03-23T09:46:38;3.90;;;1.27;;
1224;SDS011;602;48.000;7.840;2024-03-23T09:49:06;1.70;;;0.70;;
1224;SDS011;602;48.000;7.840;2024-03-23T09:51:35;1.67;;;1.33;;
1224;SDS011;602;48.000;7.840;2024-03-23T09:54:01;1.07;;;0.97;;
1224;SDS011;602;48.000;7.840;2024-03-23T09:56:28;1.97;;;1.13;;
1224;SDS011;602;48.000;7.840;2024-03-23T09:58:59;1.10;;;1.00;;
1224;SDS011;602;48.000;7.840;2024-03-23T10:01:27;1.00;;;0.90;;
1224;SDS011;602;48.000;7.840;2024-03-23T10:03:55;1.17;;;1.00;;
1224;SDS011;602;48.000;7.840;2024-03-23T10:06:23;3.70;;;1.77;;
1224;SDS011;602;48.000;7.840;2024-03-23T10:08:50;0.60;;;0.57;;
1224;SDS011;602;48.000;7.840;2024-03-23T10:11:18;7.13;;;1.73;;
1224;SDS011;602;48.000;7.840;2024-03-23T10:13:44;1.60;;;1.50;;
1224;SDS011;602;48.000;7.840;2024-03-23T10:16:12;2.20;;;0.97;;
1224;SDS011;602;48.000;7.840;2024-03-23T10:18:47;4.97;;;1.47;;
1224;SDS011;602;48.000;7.840;2024-03-23T10:21:14;1.93;;;1.40;;
1224;SDS011;602;48.000;7.840;2024-03-23T10:23:42;2.57;;;1.53;;
1224;SDS011;602;48.000;7.840;2024-03-23T10:26:16;3.20;;;1.57;;
1224;SDS011;602;48.000;7.840;2024-03-23T10:28:56;0.80;;;0.80;;
1224;SDS011;602;48.000;7.840;2024-03-23T10:31:26;2.50;;;1.20;;
1224;SDS011;602;48.000;7.840;2024-03-23T10:33:51;6.80;;;1.47;;
1224;SDS011;602;48.000;7.840;2024-03-23T10:36:19;0.90;;;0.90;;
1224;SDS011;602;48.000;7.840;2024-03-23T10:38:47;0.90;;;0.90;;
1224;SDS011;602;48.000;7.840;2024-03-23T10:41:16;1.00;;;0.70;;
1224;SDS011;602;48.000;7.840;2024-03-23T10:43:43;0.73;;;0.73;;
1224;SDS011;602;48.000;7.840;2024-03-23T10:46:12;1.30;;;1.20;;
1224;SDS011;602;48.000;7.840;2024-03-23T10:48:38;7.77;;;1.57;;
1224;SDS011;602;48.000;7.840;2024-03-23T10:51:05;2.77;;;1.17;;
1224;SDS011;602;48.000;7.840;2024-03-23T10:53:34;0.77;;;0.70;;
1224;SDS011;602;48.000;7.840;2024-03-23T10:56:03;2.47;;;1.00;;
1224;SDS011;602;48.000;7.840;2024-03-23T10:58:31;3.33;;;1.13;;
1224;SDS011;602;48.000;7.840;2024-03-23T11:00:59;1.60;;;1.23;;
1224;SDS011;602;48.000;7.840;2024-03-23T11:03:30;2.20;;;0.70;;
1224;SDS011;602;48.000;7.840;2024-03-23T11:05:58;1.53;;;0.87;;
1224;SDS011;602;48.000;7.840;2024-03-23T11:08:31;1.40;;;0.60;;
1224;SDS011;602;48.000;7.840;2024-03-23T11:11:13;0.70;;;0.70;;
1224;SDS011;602;48.000;7.840;2024-03-23T11:13:40;4.30;;;1.10;;
1224;SDS011;602;48.000;7.840;2024-03-23T11:16:13;0.63;;;0.63;;
1224;SDS011;602;48.000;7.840;2024-03-23T11:18:46;1.20;;;1.10;;
1224;SDS011;602;48.000;7.840;2024-03-23T11:21:18;1.07;;;0.83;;
1224;SDS011;602;48.000;7.840;2024-03-23T11:24:17;1.10;;;0.80;;
1224;SDS011;602;48.000;7.840;2024-03-23T11:26:46;0.90;;;0.80;;
1224;SDS011;602;48.000;7.840;2024-03-23T11:29:12;0.57;;;0.50;;
1224;SDS011;602;48.000;7.840;2024-03-23T11:31:45;0.57;;;0.57;;
1224;SDS011;602;48.000;7.840;2024-03-23T11:34:11;1.10;;;0.70;;
1224;SDS011;602;48.000;7.840;2024-03-23T11:36:38;1.60;;;1.50;;
1224;SDS011;602;48.000;7.840;2024-03-23T11:39:11;0.83;;;0.83;;
1224;SDS011;602;48.000;7.840;2024-03-23T11:41:48;1.53;;;0.97;;
1224;SDS011;602;48.000;7.840;2024-03-23T11:44:16;2.17;;;0.70;;
1224;SDS011;602;48.000;7.840;2024-03-23T11:46:43;1.97;;;0.90;;
1224;SDS011;602;48.000;7.840;2024-03-23T11:49:19;0.73;;;0.73;;
1224;SDS011;602;48.000;7.840;2024-03-23T11:51:48;0.87;;;0.87;;
1224;SDS011;602;48.000;7.840;2024-03-23T11:54:15;0.63;;;0.63;;
1224;SDS011;602;48.000;7.840;2024-03-23T11:56:55;0.63;;;0.63;;
1224;SDS011;602;48.000;7.840;2024-03-23T11:59:31;1.03;;;0.60;;
1224;SDS011;602;48.000;7.840;2024-03-23T12:01:59;1.53;;;0.80;;
1224;SDS011;602;48.000;7.840;2024-03-23T12:04:26;0.60;;;0.60;;
1224;SDS011;602;48.000;7.840;2024-03-23T12:09:34;0.73;;;0.73;;
1224;SDS011;602;48.000;7.840;2024-03-23T12:12:06;0.50;;;0.50;;
1224;SDS011;602;48.000;7.840;2024-03-23T12:14:36;0.63;;;0.57;;
1224;SDS011;602;48.000;7.840;2024-03-23T12:17:07;1.27;;;1.17;;
1224;SDS011;602;48.000;7.840;2024-03-23T12:19:34;2.20;;;1.33;;
1224;SDS011;602;48.000;7.840;2024-03-23T12:22:02;4.83;;;0.87;;
1224;SDS011;602;48.000;7.840;2024-03-23T12:24:28;1.20;;;1.10;;
1224;SDS011;602;48.000;7.840;2024-03-23T12:26:59;4.10;;;1.17;;
1224;SDS011;602;48.000;7.840;2024-03-23T12:29:27;3.70;;;1.17;;
1224;SDS011;602;48.000;7.840;2024-03-23T12:31:55;1.13;;;0.83;;
1224;SDS011;602;48.000;7.840;2024-03-23T12:34:21;5.30;;;1.40;;
1224;SDS011;602;48.000;7.840;2024-03-23T12:36:48;3.10;;;0.87;;
1224;SDS011;602;48.000;7.840;2024-03-23T12:39:14;3.27;;;1.40;;
1224;SDS011;602;48.000;7.840;2024-03-23T12:41:41;0.80;;;0.80;;
1224;SDS011;602;48.000;7.840;2024-03-23T12:44:06;3.30;;;1.33;;
1224;SDS011;602;48.000;7.840;2024-03-23T12:46:38;2.70;;;1.43;;
1224;SDS011;602;48.000;7.840;2024-03-23T12:49:04;2.80;;;1.40;;
1224;SDS011;602;48.000;7.840;2024-03-23T12:51:31;3.03;;;1.27;;
1224;SDS011;602;48.000;7.840;2024-03-23T12:53:57;1.67;;;0.93;;
1224;SDS011;602;48.000;7.840;2024-03-23T12:56:23;2.90;;;1.20;;
1224;SDS011;602;48.000;7.840;2024-03-23T12:58:49;1.13;;;0.80;;
1224;SDS011;602;48.000;7.840;2024-03-23T13:01:18;1.20;;;0.90;;
1224;SDS011;602;48.000;7.840;2024-03-23T13:03:47;4.10;;;1.00;;
1224;SDS011;602;48.000;7.840;2024-03-23T13:06:14;1.33;;;1.10;;
1224;SDS011;602;48.000;7.840;2024-03-23T13:08:40;3.30;;;1.13;;
1224;SDS011;602;48.000;7.840;2024-03-23T13:11:08;1.37;;;1.27;;
1224;SDS011;602;48.000;7.840;2024-03-23T13:13:35;1.40;;;0.97;;
1224;SDS011;602;48.000;7.840;2024-03-23T13:16:02;3.77;;;1.50;;
1224;SDS011;602;48.000;7.840;2024-03-23T13:18:29;4.60;;;1.40;;
1224;SDS011;602;48.000;7.840;2024-03-23T13:20:57;1.10;;;0.70;;
1224;SDS011;602;48.000;7.840;2024-03-23T13:23:23;1.70;;;1.50;;
1224;SDS011;602;48.000;7.840;2024-03-23T13:25:50;2.93;;;1.27;;
1224;SDS011;602;48.000;7.840;2024-03-23T13:28:17;1.80;;;1.30;;
1224;SDS011;602;48.000;7.840;2024-03-23T13:30:49;1.30;;;1.20;;
1224;SDS011;602;48.000;7.840;2024-03-23T13:33:16;1.43;;;1.30;;
1224;SDS011;602;48.000;7.840;2024-03-23T13:35:48;1.40;;;1.07;;
1224;SDS011;602;48.000;7.840;2024-03-23T13:38:16;1.30;;;1.20;;
1224;SDS011;602;48.000;7.840;2024-03-23T13:40:50;2.20;;;0.90;;
1224;SDS011;602;48.000;7.840;2024-03-23T13:43:20;1.13;;;0.63;;
1224;SDS011;602;48.000;7.840;2024-03-23T13:45:47;1.33;;;0.60;;
1224;SDS011;602;48.000;7.840;2024-03-23T13:48:14;1.37;;;0.90;;
1224;SDS011;602;48.000;7.840;2024-03-23T13:50:43;1.80;;;0.80;;
1224;SDS011;602;48.000;7.840;2024-03-23T13:53:09;4.17;;;1.37;;
1224;SDS011;602;48.000;7.840;2024-03-23T13:55:37;1.30;;;0.83;;
1224;SDS011;602;48.000;7.840;2024-03-23T13:58:03;1.00;;;0.60;;
1224;SDS011;602;48.000;7.840;2024-03-23T14:00:30;1.73;;;1.37;;
1224;SDS011;602;48.000;7.840;2024-03-23T14:02:57;2.03;;;0.90;;
1224;SDS011;602;48.000;7.840;2024-03-23T14:05:24;0.80;;;0.67;;
1224;SDS011;602;48.000;7.840;2024-03-23T14:07:50;1.40;;;1.30;;
1224;SDS011;602;48.000;7.840;2024-03-23T14:10:17;1.67;;;1.27;;
1224;SDS011;602;48.000;7.840;2024-03-23T14:12:44;0.83;;;0.63;;
1224;SDS011;602;48.000;7.840;2024-03-23T14:15:11;1.43;;;1.20;;
1224;SDS011;602;48.000;7.840;2024-03-23T14:17:37;1.40;;;0.80;;
1224;SDS011;602;48.000;7.840;2024-03-23T14:20:04;1.77;;;0.57;;
1224;SDS011;602;48.000;7.840;2024-03-23T14:22:30;0.40;;;0.40;;
1224;SDS011;602;48.000;7.840;2024-03-23T14:24:57;1.97;;;0.63;;
1224;SDS011;602;48.000;7.840;2024-03-23T14:27:23;1.27;;;0.70;;
1224;SDS011;602;48.000;7.840;2024-03-23T14:29:52;2.13;;;0.60;;
1224;SDS011;602;48.000;7.840;2024-03-23T14:32:18;0.63;;;0.57;;
1224;SDS011;602;48.000;7.840;2024-03-23T14:34:44;5.10;;;1.23;;
1224;SDS011;602;48.000;7.840;2024-03-23T14:37:11;1.13;;;0.60;;
1224;SDS011;602;48.000;7.840;2024-03-23T14:39:40;3.97;;;0.70;;
1224;SDS011;602;48.000;7.840;2024-03-23T14:42:06;8.13;;;0.93;;
1224;SDS011;602;48.000;7.840;2024-03-23T14:44:34;2.83;;;0.70;;
1224;SDS011;602;48.000;7.840;2024-03-23T14:47:01;0.87;;;0.40;;
1224;SDS011;602;48.000;7.840;2024-03-23T14:49:28;0.90;;;0.60;;
1224;SDS011;602;48.000;7.840;2024-03-23T14:51:54;1.10;;;0.63;;
1224;SDS011;602;48.000;7.840;2024-03-23T14:54:21;1.40;;;0.57;;
1224;SDS011;602;48.000;7.840;2024-03-23T14:56:47;3.63;;;0.50;;
1224;SDS011;602;48.000;7.840;2024-03-23T14:59:14;2.40;;;1.17;;
1224;SDS011;602;48.000;7.840;2024-03-23T15:01:40;0.90;;;0.67;;
1224;SDS011;602;48.000;7.840;2024-03-23T15:04:08;0.70;;;0.60;;
1224;SDS011;602;48.000;7.840;2024-03-23T15:06:34;1.87;;;0.70;;
1224;SDS011;602;48.000;7.840;2024-03-23T15:09:01;2.00;;;0.97;;
1224;SDS011;602;48.000;7.840;2024-03-23T15:11:27;0.50;;;0.50;;
1224;SDS011;602;48.000;7.840;2024-03-23T15:13:53;1.37;;;0.77;;
1224;SDS011;602;48.000;7.840;2024-03-23T15:16:20;0.73;;;0.40;;
1224;SDS011;602;48.000;7.840;2024-03-23T15:18:47;0.43;;;0.43;;
1224;SDS011;602;48.000;7.840;2024-03-23T15:21:15;0.40;;;0.30;;
1224;SDS011;602;48.000;7.840;2024-03-23T15:23:46;2.67;;;1.00;;
1224;SDS011;602;48.000;7.840;2024-03-23T15:26:11;0.40;;;0.40;;
1224;SDS011;602;48.000;7.840;2024-03-23T15:28:38;0.43;;;0.40;;
1224;SDS011;602;48.000;7.840;2024-03-23T15:31:06;0.87;;;0.67;;
1224;SDS011;602;48.000;7.840;2024-03-23T15:33:34;0.70;;;0.50;;
1224;SDS011;602;48.000;7.840;2024-03-23T15:36:01;0.97;;;0.60;;
1224;SDS011;602;48.000;7.840;2024-03-23T15:38:30;3.93;;;0.63;;
1224;SDS011;602;48.000;7.840;2024-03-23T15:40:57;2.10;;;0.90;;
1224;SDS011;602;48.000;7.840;2024-03-23T15:43:24;0.43;;;0.43;;
1224;SDS011;602;48.000;7.840;2024-03-23T15:45:53;1.17;;;0.73;;
1224;SDS011;602;48.000;7.840;2024-03-23T15:48:21;0.83;;;0.77;;
1224;SDS011;602;48.000;7.840;2024-03-23T15:50:50;0.70;;;0.70;;
1224;SDS011;602;48.000;7.840;2024-03-23T15:53:18;0.40;;;0.40;;
1224;SDS011;602;48.000;7.840;2024-03-23T15:55:45;0.87;;;0.63;;
1224;SDS011;602;48.000;7.840;2024-03-23T15:58:12;0.70;;;0.67;;
1224;SDS011;602;48.000;7.840;2024-03-23T16:00:38;0.87;;;0.87;;
1224;SDS011;602;48.000;7.840;2024-03-23T16:03:05;0.40;;;0.40;;
1224;SDS011;602;48.000;7.840;2024-03-23T16:05:30;1.43;;;0.80;;
1224;SDS011;602;48.000;7.840;2024-03-23T16:07:57;0.30;;;0.30;;
1224;SDS011;602;48.000;7.840;2024-03-23T16:10:23;1.27;;;0.70;;
1224;SDS011;602;48.000;7.840;2024-03-23T16:12:51;0.50;;;0.30;;
1224;SDS011;602;48.000;7.840;2024-03-23T16:15:17;0.30;;;0.30;;
1224;SDS011;602;48.000;7.840;2024-03-23T16:17:44;0.30;;;0.30;;
1224;SDS011;602;48.000;7.840;2024-03-23T16:20:10;0.30;;;0.30;;
1224;SDS011;602;48.000;7.840;2024-03-23T16:22:38;0.97;;;0.63;;
1224;SDS011;602;48.000;7.840;2024-03-23T16:25:04;0.60;;;0.60;;
1224;SDS011;602;48.000;7.840;2024-03-23T16:27:32;0.80;;;0.70;;